Time;durP1;ratioP1;P1;durP2;ratioP2;P2;SDS_P1;SDS_P2;PMS_P1;PMS_P2;Temp;Humidity;BMP_temperature;BMP_pressure;BME280_temperature;BME280_humidity;BME280_pressure;Samples;Min_cycle;Max_cycle;Signal;HPM_P1;HPM_P2
2020/12/29 00:01:45;;;;;;;12.20;6.45;;;;;;;1.36;100.00;97469.19;4988562;28;20050;-71
2020/12/29 00:04:16;;;;;;;14.45;6.78;;;;;;;1.32;100.00;97473.03;4976700;28;20026;-71
2020/12/29 00:06:53;;;;;;;14.75;7.18;;;;;;;1.29;100.00;97478.56;4989082;28;20034;-71
2020/12/29 00:09:21;;;;;;;14.45;6.55;;;;;;;1.26;100.00;97480.59;4983986;28;20398;-71
2020/12/29 00:11:47;;;;;;;11.10;6.43;;;;;;;1.25;100.00;97477.13;4969511;28;20532;-71
2020/12/29 00:14:13;;;;;;;10.57;6.05;;;;;;;1.23;100.00;97474.59;4954969;28;20084;-71
2020/12/29 00:16:39;;;;;;;14.32;6.65;;;;;;;1.23;100.00;97484.34;4987366;28;20532;-71
2020/12/29 00:19:11;;;;;;;12.20;6.38;;;;;;;1.17;100.00;97477.72;4972321;28;20046;-71
2020/12/29 00:21:37;;;;;;;12.67;6.60;;;;;;;1.14;100.00;97479.75;4970690;28;20038;-71
2020/12/29 00:24:03;;;;;;;8.90;6.05;;;;;;;1.14;100.00;97485.03;4977094;28;20041;-71
2020/12/29 00:26:28;;;;;;;7.95;5.80;;;;;;;1.09;100.00;97497.75;4989333;28;20038;-71
2020/12/29 00:28:54;;;;;;;10.02;5.78;;;;;;;1.04;100.00;97484.94;4970762;28;20031;-71
2020/12/29 00:31:20;;;;;;;10.00;5.72;;;;;;;1.00;100.00;97479.97;4985124;28;20119;-71
2020/12/29 00:33:47;;;;;;;14.68;6.68;;;;;;;0.99;100.00;97480.97;4991488;28;20424;-71
2020/12/29 00:36:14;;;;;;;11.13;6.90;;;;;;;0.96;100.00;97475.91;4988000;28;20088;-71
2020/12/29 00:38:39;;;;;;;13.18;6.68;;;;;;;0.93;100.00;97482.25;4990211;28;20045;-71
2020/12/29 00:41:09;;;;;;;13.75;6.18;;;;;;;0.90;100.00;97487.78;4970029;28;20085;-71
2020/12/29 00:43:35;;;;;;;9.13;5.72;;;;;;;0.89;100.00;97479.97;4990572;28;20022;-71
2020/12/29 00:46:08;;;;;;;12.07;6.82;;;;;;;0.86;100.00;97480.22;4985032;28;20028;-71
2020/12/29 00:48:33;;;;;;;;;;;;;;;0.81;100.00;97484.03;4988861;28;20026;-71
2020/12/29 00:51:20;;;;;;;15.40;5.80;;;;;;;0.78;100.00;97473.72;4974402;28;19913;-71
2020/12/29 00:53:53;;;;;;;11.48;6.43;;;;;;;0.74;100.00;97471.44;4989098;28;20561;-71
2020/12/29 00:56:19;;;;;;;13.07;7.28;;;;;;;0.72;100.00;97479.47;4970038;28;20066;-71
2020/12/29 00:58:47;;;;;;;12.18;6.78;;;;;;;0.71;100.00;97487.50;4970511;28;20112;-71
2020/12/29 01:01:14;;;;;;;9.32;6.22;;;;;;;0.69;100.00;97487.59;4970198;28;20517;-71
2020/12/29 01:04:00;;;;;;;11.30;6.40;;;;;;;0.67;100.00;97481.63;4989170;28;20031;-71
2020/12/29 01:06:27;;;;;;;10.95;5.72;;;;;;;0.67;100.00;97488.69;4969717;28;20042;-71
2020/12/29 01:08:54;;;;;;;10.73;6.25;;;;;;;0.62;100.00;97494.31;4971237;28;20036;-71
2020/12/29 01:11:20;;;;;;;10.15;6.53;;;;;;;0.61;100.00;97495.28;4955209;28;20030;-71
2020/12/29 01:13:51;;;;;;;12.18;6.80;;;;;;;0.58;100.00;97492.84;4986578;28;20463;-71
2020/12/29 01:16:17;;;;;;;10.85;6.40;;;;;;;0.54;100.00;97494.06;5001898;28;20156;-71
2020/12/29 01:18:48;;;;;;;11.90;6.72;;;;;;;0.53;100.00;97495.00;4970255;28;20062;-71
2020/12/29 01:21:13;;;;;;;11.52;6.80;;;;;;;0.53;100.00;97494.16;4986885;28;20030;-71
2020/12/29 01:23:39;;;;;;;11.52;6.63;;;;;;;0.50;100.00;97497.00;4990527;28;20505;-71
2020/12/29 01:26:04;;;;;;;13.20;7.05;;;;;;;0.47;100.00;97500.75;4991128;28;20068;-71
2020/12/29 01:28:30;;;;;;;15.35;7.43;;;;;;;0.46;100.00;97501.69;4992663;28;20026;-71
2020/12/29 01:30:55;;;;;;;12.65;7.53;;;;;;;0.43;100.00;97509.84;4979776;28;20499;-71
2020/12/29 01:33:20;;;;;;;12.35;7.35;;;;;;;0.43;100.00;97514.28;4963949;28;20042;-71
2020/12/29 01:35:46;;;;;;;12.88;7.00;;;;;;;0.41;100.00;97509.13;4992382;28;20026;-71
2020/12/29 01:38:11;;;;;;;12.55;6.85;;;;;;;0.37;100.00;97511.13;5005924;28;20038;-71
2020/12/29 01:40:37;;;;;;;12.30;6.60;;;;;;;0.33;100.00;97514.94;4989249;28;20034;-71
2020/12/29 01:43:03;;;;;;;11.05;7.18;;;;;;;0.33;100.00;97508.84;4965172;28;20045;-71
2020/12/29 01:45:29;;;;;;;15.23;7.80;;;;;;;0.29;100.00;97517.94;4992286;28;20050;-71
2020/12/29 01:47:54;;;;;;;14.02;7.82;;;;;;;0.26;100.00;97520.78;4993933;28;20038;-70
2020/12/29 01:50:22;;;;;;;13.77;7.68;;;;;;;0.25;100.00;97522.59;4991297;28;20449;-71
2020/12/29 01:52:55;;;;;;;11.90;6.80;;;;;;;0.24;100.00;97522.72;4976968;28;20403;-71
2020/12/29 01:55:20;;;;;;;12.32;6.97;;;;;;;0.22;100.00;97522.81;4971250;28;20034;-71
2020/12/29 01:57:46;;;;;;;14.02;6.55;;;;;;;0.22;100.00;97527.25;4990395;28;20516;-71
2020/12/29 02:00:12;;;;;;;10.20;6.40;;;;;;;0.20;100.00;97529.16;4974325;28;20037;-71
2020/12/29 02:02:41;;;;;;;18.65;8.55;;;;;;;0.18;100.00;97531.06;4991035;28;20042;-71
2020/12/29 02:05:08;;;;;;;14.20;6.93;;;;;;;0.17;100.00;97539.94;4974642;28;20042;-71
2020/12/29 02:07:33;;;;;;;12.52;6.78;;;;;;;0.16;100.00;97540.88;4977557;28;20041;-71
2020/12/29 02:09:59;;;;;;;12.40;6.95;;;;;;;0.13;100.00;97549.00;4981039;28;20034;-70
2020/12/29 02:12:30;;;;;;;11.80;7.03;;;;;;;0.08;100.00;97544.06;4976427;28;20128;-71
2020/12/29 02:14:56;;;;;;;11.02;6.70;;;;;;;0.07;100.00;97544.19;4975516;28;20498;-70
2020/12/29 02:17:23;;;;;;;10.30;6.53;;;;;;;0.05;100.00;97548.75;4972634;28;20139;-70
2020/12/29 02:19:49;;;;;;;12.60;7.38;;;;;;;0.04;100.00;97549.69;4989225;28;20172;-71
2020/12/29 02:22:20;;;;;;;11.43;6.88;;;;;;;0.00;100.00;97557.81;4973296;28;20116;-71
2020/12/29 02:24:54;;;;;;;12.40;7.25;;;;;;;-0.02;100.00;97551.81;4991865;28;20026;-71
2020/12/29 02:27:21;;;;;;;14.32;7.75;;;;;;;-0.04;100.00;97564.25;4990263;28;20027;-70
2020/12/29 02:29:47;;;;;;;11.65;7.03;;;;;;;-0.05;100.00;97567.00;4973250;28;20088;-71
2020/12/29 02:32:13;;;;;;;14.05;7.68;;;;;;;-0.06;100.00;97570.56;4990060;28;20034;-70
2020/12/29 02:34:39;;;;;;;13.93;7.63;;;;;;;-0.09;100.00;97582.19;4986861;28;20027;-70
2020/12/29 02:37:07;;;;;;;13.43;8.15;;;;;;;-0.10;100.00;97577.88;4972583;28;20034;-70
2020/12/29 02:39:38;;;;;;;13.57;7.63;;;;;;;-0.12;100.00;97577.13;4991475;28;20019;-70
2020/12/29 02:42:05;;;;;;;13.13;7.83;;;;;;;-0.13;100.00;97574.63;4989586;28;20442;-70
2020/12/29 02:44:30;;;;;;;12.32;7.57;;;;;;;-0.15;100.00;97579.16;4990410;28;20514;-71
2020/12/29 02:46:55;;;;;;;12.25;7.63;;;;;;;-0.17;100.00;97578.41;4989259;28;20038;-70
2020/12/29 02:49:21;;;;;;;13.63;7.32;;;;;;;-0.18;100.00;97579.38;4990347;28;20126;-71
2020/12/29 02:51:46;;;;;;;12.10;7.93;;;;;;;-0.20;100.00;97578.66;4990482;28;20038;-71
2020/12/29 02:54:15;;;;;;;13.48;8.20;;;;;;;-0.21;100.00;97583.06;4972750;28;20113;-71
2020/12/29 02:56:42;;;;;;;15.00;7.68;;;;;;;-0.24;100.00;97585.91;4993647;28;20044;-70
2020/12/29 02:59:09;;;;;;;16.13;7.72;;;;;;;-0.25;100.00;97581.63;4989958;28;20088;-70
2020/12/29 03:01:34;;;;;;;13.70;7.57;;;;;;;-0.26;100.00;97590.47;4989512;28;20045;-70
2020/12/29 03:04:00;;;;;;;11.48;7.28;;;;;;;-0.28;100.00;97580.97;4989328;28;20026;-71
2020/12/29 03:06:27;;;;;;;13.77;8.55;;;;;;;-0.29;100.00;97593.31;4988605;28;20478;-71
2020/12/29 03:08:53;;;;;;;14.10;8.77;;;;;;;-0.30;100.00;97593.41;4971281;28;20066;-71
2020/12/29 03:11:31;;;;;;;14.13;7.90;;;;;;;-0.31;100.00;97600.50;4989790;28;20049;-71
2020/12/29 03:13:59;;;;;;;12.27;7.70;;;;;;;-0.33;100.00;97605.03;5004147;28;20030;-71
2020/12/29 03:16:25;;;;;;;16.02;8.88;;;;;;;-0.32;100.00;97600.59;4970693;28;20073;-71
2020/12/29 03:18:51;;;;;;;12.45;8.38;;;;;;;-0.35;100.00;97606.91;4987402;28;20073;-71
2020/12/29 03:21:17;;;;;;;16.02;8.65;;;;;;;-0.36;100.00;97609.66;4988908;28;20402;-71
2020/12/29 03:23:42;;;;;;;13.93;8.07;;;;;;;-0.38;100.00;97601.03;4992282;28;20046;-71
2020/12/29 03:26:08;;;;;;;17.73;8.52;;;;;;;-0.41;100.00;97612.59;4973387;28;20438;-71
2020/12/29 03:28:33;;;;;;;18.40;8.82;;;;;;;-0.43;100.00;97607.44;4990085;28;20026;-70
2020/12/29 03:30:59;;;;;;;16.80;9.15;;;;;;;-0.45;100.00;97611.13;4988141;28;20524;-69
2020/12/29 03:33:24;;;;;;;14.55;9.25;;;;;;;-0.47;100.00;97602.50;4988586;28;20426;-70
2020/12/29 03:35:50;;;;;;;18.00;9.60;;;;;;;-0.48;100.00;97613.97;4988671;28;20490;-70
2020/12/29 03:38:15;;;;;;;18.60;9.43;;;;;;;-0.49;100.00;97620.19;4989533;28;20031;-70
2020/12/29 03:40:41;;;;;;;15.52;9.05;;;;;;;-0.51;100.00;97624.75;4973054;28;20038;-70
2020/12/29 03:43:12;;;;;;;16.05;9.85;;;;;;;-0.53;100.00;97630.09;4971816;28;20035;-71
2020/12/29 03:45:39;;;;;;;15.95;9.55;;;;;;;-0.55;100.00;97631.16;4993468;28;20034;-71
2020/12/29 03:48:04;;;;;;;15.00;9.85;;;;;;;-0.55;100.00;97632.00;4989020;28;20093;-71
2020/12/29 03:50:29;;;;;;;17.35;9.43;;;;;;;-0.58;100.00;97631.38;4972348;28;20034;-71
2020/12/29 03:52:55;;;;;;;19.15;10.48;;;;;;;-0.61;100.00;97635.03;4991470;28;20042;-70
2020/12/29 03:55:20;;;;;;;17.55;9.77;;;;;;;-0.60;100.00;97628.00;4987483;28;20042;-70
2020/12/29 03:57:45;;;;;;;12.93;8.77;;;;;;;-0.64;100.00;97637.06;4988579;28;20434;-70
2020/12/29 04:00:11;;;;;;;16.58;9.77;;;;;;;-0.66;100.00;97638.94;4987189;28;20042;-71
2020/12/29 04:02:39;;;;;;;16.88;10.10;;;;;;;-0.69;100.00;97640.00;4988099;28;20076;-70
2020/12/29 04:05:04;;;;;;;15.05;9.00;;;;;;;-0.68;100.00;97643.50;4984830;28;20499;-70
2020/12/29 04:07:30;;;;;;;15.70;9.90;;;;;;;-0.69;100.00;97641.81;4971327;28;20060;-70
2020/12/29 04:09:55;;;;;;;17.83;9.90;;;;;;;-0.71;100.00;97638.41;4988010;28;20030;-70
2020/12/29 04:12:20;;;;;;;18.73;9.98;;;;;;;-0.75;100.00;97642.22;4974616;28;20030;-70
2020/12/29 04:14:46;;;;;;;17.23;9.18;;;;;;;-0.76;100.00;97645.78;4988421;28;20030;-70
2020/12/29 04:17:11;;;;;;;17.60;9.20;;;;;;;-0.77;100.00;97641.47;4956115;28;20498;-71
2020/12/29 04:19:37;;;;;;;15.10;8.90;;;;;;;-0.76;100.00;97653.69;4975235;28;20034;-70
2020/12/29 04:22:02;;;;;;;17.42;9.70;;;;;;;-0.83;100.00;97648.84;4990975;28;20084;-69
2020/12/29 04:24:27;;;;;;;15.88;9.18;;;;;;;-0.83;100.00;97658.53;4988436;28;20049;-70
2020/12/29 04:26:53;;;;;;;18.15;9.15;;;;;;;-0.84;100.00;97662.94;5001171;28;20038;-70
2020/12/29 04:29:18;;;;;;;19.60;9.68;;;;;;;-0.86;100.00;97664.81;4988518;28;20667;-68
2020/12/29 04:31:47;;;;;;;18.08;10.10;;;;;;;-0.88;100.00;97674.63;5002218;28;20050;-69
2020/12/29 04:34:12;;;;;;;20.27;11.48;;;;;;;-0.86;100.00;97672.72;4989219;28;20076;-70
2020/12/29 04:36:37;;;;;;;18.63;9.93;;;;;;;-0.89;100.00;97680.00;5001389;28;20065;-70
2020/12/29 04:39:03;;;;;;;21.63;10.85;;;;;;;-0.92;100.00;97685.44;4987130;28;20034;-70
2020/12/29 04:41:29;;;;;;;15.48;9.38;;;;;;;-0.94;100.00;97687.34;4987370;28;20038;-71
2020/12/29 04:43:55;;;;;;;19.10;10.52;;;;;;;-0.92;100.00;97699.44;4988743;28;20112;-70
2020/12/29 04:46:21;;;;;;;18.80;10.95;;;;;;;-0.93;100.00;97694.31;4970508;28;20096;-70
2020/12/29 04:48:47;;;;;;;18.92;10.85;;;;;;;-0.98;100.00;97699.84;4988616;28;20061;-70
2020/12/29 04:51:15;;;;;;;19.63;10.93;;;;;;;-0.99;100.00;97706.06;4987409;28;20030;-70
2020/12/29 04:53:56;;;;;;;19.58;12.32;;;;;;;-1.00;100.00;97704.41;4988748;28;20469;-70
2020/12/29 04:56:26;;;;;;;19.35;10.93;;;;;;;-1.01;100.00;97713.25;4983498;28;20045;-70
2020/12/29 04:58:52;;;;;;;16.83;10.75;;;;;;;-1.04;100.00;97718.69;4970623;28;20034;-70
2020/12/29 05:01:22;;;;;;;18.98;10.65;;;;;;;-1.06;100.00;97714.50;4983363;28;20818;-70
2020/12/29 05:03:48;;;;;;;19.45;11.25;;;;;;;-1.07;100.00;97724.16;4971684;28;20121;-70
2020/12/29 05:06:14;;;;;;;21.58;10.27;;;;;;;-1.10;100.00;97732.25;4987239;28;20049;-70
2020/12/29 05:08:47;;;;;;;17.38;10.15;;;;;;;-1.07;100.00;97731.22;4988027;28;20074;-70
2020/12/29 05:11:13;;;;;;;17.50;9.68;;;;;;;-1.10;100.00;97741.91;4987732;28;20193;-69
2020/12/29 05:13:39;;;;;;;20.90;10.15;;;;;;;-1.10;100.00;97755.09;4986696;28;20573;-70
2020/12/29 05:16:05;;;;;;;23.33;9.80;;;;;;;-1.17;100.00;97749.38;4988567;28;20127;-70
2020/12/29 05:18:30;;;;;;;20.20;10.52;;;;;;;-1.23;100.00;97755.88;4988079;28;20026;-68
2020/12/29 05:20:56;;;;;;;16.65;9.38;;;;;;;-1.24;100.00;97762.09;4969452;28;20876;-70
2020/12/29 05:23:22;;;;;;;14.73;9.65;;;;;;;-1.25;100.00;97751.66;4988006;28;20502;-69
2020/12/29 05:25:48;;;;;;;20.00;11.43;;;;;;;-1.16;100.00;97760.75;4993266;28;20070;-69
2020/12/29 05:28:13;;;;;;;27.10;11.30;;;;;;;-1.22;100.00;97765.47;4969824;28;20056;-69
2020/12/29 05:30:42;;;;;;;19.83;10.80;;;;;;;-1.24;100.00;97770.00;4987328;28;20034;-70
2020/12/29 05:33:13;;;;;;;18.83;11.55;;;;;;;-1.22;100.00;97775.13;4986938;28;20038;-70
2020/12/29 05:35:39;;;;;;;21.33;10.57;;;;;;;-1.25;100.00;97777.97;4986860;28;20697;-70
2020/12/29 05:38:08;;;;;;;19.52;11.15;;;;;;;-1.27;100.00;97787.75;4986274;28;20034;-70
2020/12/29 05:40:34;;;;;;;21.58;10.90;;;;;;;-1.30;100.00;97786.16;4987667;28;20688;-70
2020/12/29 05:43:01;;;;;;;17.08;9.75;;;;;;;-1.30;100.00;97782.69;4985326;28;20038;-70
2020/12/29 05:45:29;;;;;;;24.77;12.13;;;;;;;-1.33;100.00;97794.25;4988474;28;20097;-70
2020/12/29 05:47:59;;;;;;;20.73;10.60;;;;;;;-1.34;100.00;97810.09;4986579;28;20052;-69
2020/12/29 05:50:26;;;;;;;19.50;10.65;;;;;;;-1.33;100.00;97799.50;4969945;28;20042;-69
2020/12/29 05:53:03;;;;;;;22.58;11.48;;;;;;;-1.37;100.00;97799.78;4987962;28;20035;-69
2020/12/29 05:55:31;;;;;;;20.50;10.85;;;;;;;-1.38;100.00;97798.09;4984861;28;20046;-69
2020/12/29 05:58:12;;;;;;;19.27;11.43;;;;;;;-1.37;100.00;97802.44;4969344;28;20046;-69
2020/12/29 06:00:40;;;;;;;20.08;12.40;;;;;;;-1.37;100.00;97805.06;4986554;28;20037;-69
2020/12/29 06:03:07;;;;;;;22.35;12.07;;;;;;;-1.36;100.00;97801.50;4988952;28;20039;-69
2020/12/29 06:05:34;;;;;;;22.15;10.05;;;;;;;-1.42;100.00;97807.13;4986989;28;20061;-69
2020/12/29 06:08:02;;;;;;;21.02;10.70;;;;;;;-1.43;100.00;97815.97;4974647;28;20034;-69
2020/12/29 06:10:33;;;;;;;24.30;10.88;;;;;;;-1.45;100.00;97825.72;4987427;28;20038;-70
2020/12/29 06:13:01;;;;;;;22.15;11.90;;;;;;;-1.50;100.00;97826.00;4972017;28;20524;-69
2020/12/29 06:15:31;;;;;;;20.88;11.30;;;;;;;-1.50;100.00;97830.44;4991503;28;20426;-69
2020/12/29 06:18:02;;;;;;;18.83;11.00;;;;;;;-1.54;100.00;97831.56;4991101;28;20084;-69
2020/12/29 06:20:44;;;;;;;20.35;11.60;;;;;;;-1.56;100.00;97830.81;4972235;28;20038;-68
2020/12/29 06:23:17;;;;;;;23.80;11.80;;;;;;;-1.57;100.00;97840.47;4974128;28;20408;-69
2020/12/29 06:25:45;;;;;;;21.33;11.73;;;;;;;-1.56;100.00;97843.97;4988611;28;20509;-69
2020/12/29 06:28:14;;;;;;;21.60;11.38;;;;;;;-1.56;100.00;97846.59;4971104;28;20034;-69
2020/12/29 06:30:40;;;;;;;20.30;10.93;;;;;;;-1.57;100.00;97855.41;4972629;28;20050;-69
2020/12/29 06:33:08;;;;;;;22.77;12.32;;;;;;;-1.57;100.00;97855.41;4988275;28;20114;-69
2020/12/29 06:35:34;;;;;;;23.88;12.35;;;;;;;-1.55;100.00;97864.06;4974315;28;20618;-69
2020/12/29 06:38:14;;;;;;;27.65;12.85;;;;;;;-1.57;100.00;97864.16;4969896;28;20154;-69
2020/12/29 06:40:41;;;;;;;22.25;12.50;;;;;;;-1.56;100.00;97880.78;4986552;28;20117;-69
2020/12/29 06:43:07;;;;;;;21.50;12.80;;;;;;;-1.52;100.00;97890.16;4987982;28;20030;-69
2020/12/29 06:45:34;;;;;;;20.38;11.57;;;;;;;-1.55;100.00;97895.63;4989213;28;20037;-69
2020/12/29 06:48:00;;;;;;;28.85;11.98;;;;;;;-1.55;100.00;97898.25;4983719;28;20049;-69
2020/12/29 06:50:31;;;;;;;27.40;13.93;;;;;;;-1.49;100.00;97909.25;4989698;28;20037;-71
2020/12/29 06:52:58;;;;;;;26.13;14.82;;;;;;;-1.51;100.00;97912.88;4956175;28;20030;-69
2020/12/29 06:55:28;;;;;;;26.05;14.27;;;;;;;-1.51;100.00;97923.41;4986450;28;20505;-68
2020/12/29 06:57:54;;;;;;;24.27;13.57;;;;;;;-1.49;100.00;97926.81;4988819;28;20038;-68
2020/12/29 07:00:22;;;;;;;28.23;14.05;;;;;;;-1.44;100.00;97930.00;4991393;28;20477;-70
2020/12/29 07:02:51;;;;;;;28.10;13.88;;;;;;;-1.40;100.00;97932.34;4988926;28;20035;-69
2020/12/29 07:05:20;;;;;;;33.70;14.75;;;;;;;-1.34;100.00;97936.38;4988905;28;20510;-69
2020/12/29 07:07:55;;;;;;;27.38;14.45;;;;;;;-1.27;100.00;97946.44;4989640;28;20022;-69
2020/12/29 07:10:22;;;;;;;26.67;14.52;;;;;;;-1.23;100.00;97949.72;4988470;28;20034;-69
2020/12/29 07:12:51;;;;;;;31.30;15.20;;;;;;;-1.14;100.00;97962.34;4989360;28;20999;-70
2020/12/29 07:15:22;;;;;;;31.42;14.88;;;;;;;-1.12;100.00;97962.25;4989043;28;21422;-69
2020/12/29 07:18:01;;;;;;;29.85;15.57;;;;;;;-1.11;100.00;97964.75;4992544;28;20565;-69
2020/12/29 07:20:33;;;;;;;34.17;15.02;;;;;;;-1.05;100.00;97967.03;4987506;28;20246;-68
2020/12/29 07:23:09;;;;;;;38.88;16.38;;;;;;;-0.96;100.00;97973.53;4987856;28;20503;-69
2020/12/29 07:25:35;;;;;;;33.03;17.02;;;;;;;-0.89;100.00;97980.94;4970756;28;20045;-69
2020/12/29 07:28:06;;;;;;;34.30;16.20;;;;;;;-0.69;100.00;97976.25;4992934;28;20069;-70
2020/12/29 07:30:32;;;;;;;30.67;15.80;;;;;;;-0.69;100.00;97990.25;4988958;28;20041;-69
2020/12/29 07:33:04;;;;;;;35.83;16.95;;;;;;;-0.67;100.00;97992.75;4987449;28;20045;-70
2020/12/29 07:35:32;;;;;;;38.08;17.17;;;;;;;-0.64;100.00;97995.22;4978397;28;20037;-69
2020/12/29 07:38:03;;;;;;;32.90;15.93;;;;;;;-0.50;100.00;97987.31;4990333;28;20059;-69
2020/12/29 07:40:29;;;;;;;30.80;15.75;;;;;;;-0.50;100.00;98003.13;4975353;28;20548;-69
2020/12/29 07:42:55;;;;;;;31.98;16.05;;;;;;;-0.40;100.00;98006.84;4971745;28;20100;-69
2020/12/29 07:45:22;;;;;;;36.85;16.33;;;;;;;-0.35;100.00;98004.78;4989954;28;20498;-70
2020/12/29 07:47:47;;;;;;;40.22;17.48;;;;;;;-0.28;100.00;98018.41;5002198;28;20049;-69
2020/12/29 07:50:13;;;;;;;32.58;15.63;;;;;;;-0.31;100.00;98018.63;4989271;28;20059;-68
2020/12/29 07:52:38;;;;;;;44.92;20.60;;;;;;;-0.31;100.00;98019.47;4988859;28;20035;-69
2020/12/29 07:55:08;;;;;;;39.38;16.63;;;;;;;-0.20;100.00;98027.53;4992049;28;20092;-70
2020/12/29 07:57:34;;;;;;;30.30;15.73;;;;;;;-0.20;100.00;98027.53;4988376;28;20038;-69
2020/12/29 08:00:26;;;;;;;34.55;14.75;;;;;;;-0.07;100.00;98044.25;4969100;28;20418;-69
2020/12/29 08:02:52;;;;;;;32.13;16.83;;;;;;;-0.06;100.00;98042.44;4986103;28;20541;-68
2020/12/29 08:05:26;;;;;;;38.42;17.35;;;;;;;-0.07;100.00;98049.53;4972140;28;20088;-69
2020/12/29 08:08:08;;;;;;;38.15;18.05;;;;;;;0.04;100.00;98051.47;4987762;28;20034;-69
2020/12/29 08:10:39;;;;;;;37.92;17.50;;;;;;;0.20;100.00;98057.44;4985755;28;20503;-69
2020/12/29 08:13:06;;;;;;;40.00;16.27;;;;;;;0.35;100.00;98067.00;4983164;28;20138;-69
2020/12/29 08:15:33;;;;;;;41.95;17.98;;;;;;;0.20;100.00;98064.50;5003515;28;20038;-70
2020/12/29 08:18:18;;;;;;;41.15;20.77;;;;;;;0.34;100.00;98067.09;4974082;28;20125;-70
2020/12/29 08:20:48;;;;;;;45.08;21.20;;;;;;;0.32;100.00;98071.63;4972131;28;20034;-70
2020/12/29 08:23:15;;;;;;;34.60;17.88;;;;;;;0.46;100.00;98079.47;4988293;28;20038;-70
2020/12/29 08:25:49;;;;;;;40.72;19.00;;;;;;;0.49;100.00;98086.38;4987954;28;20494;-70
2020/12/29 08:28:16;;;;;;;41.15;19.33;;;;;;;0.61;100.00;98088.19;4985271;28;20519;-70
2020/12/29 08:30:41;;;;;;;36.55;19.48;;;;;;;0.48;100.00;98088.16;4987067;28;20188;-70
2020/12/29 08:33:07;;;;;;;38.78;19.35;;;;;;;0.56;100.00;98099.03;4972972;28;20557;-70
2020/12/29 08:35:43;;;;;;;42.30;20.15;;;;;;;0.52;100.00;98100.19;4987147;28;20038;-70
2020/12/29 08:38:26;;;;;;;37.55;18.35;;;;;;;0.53;100.00;98096.63;4985541;28;20026;-70
2020/12/29 08:41:04;;;;;;;49.03;24.50;;;;;;;0.58;100.00;98102.44;4970024;28;20045;-70
2020/12/29 08:43:30;;;;;;;36.72;20.52;;;;;;;0.65;100.00;98106.34;4989759;28;20038;-70
2020/12/29 08:46:03;;;;;;;34.80;17.55;;;;;;;0.67;100.00;98115.03;4989658;28;20072;-69
2020/12/29 08:48:29;;;;;;;31.63;16.17;;;;;;;0.70;100.00;98117.47;4987103;28;20077;-70
2020/12/29 08:50:55;;;;;;;39.55;17.13;;;;;;;0.85;100.00;98123.53;4987800;28;20038;-70
2020/12/29 08:53:25;;;;;;;39.92;18.90;;;;;;;0.77;100.00;98124.03;4972902;28;20042;-70
2020/12/29 08:55:50;;;;;;;31.13;17.20;;;;;;;0.90;100.00;98126.72;4999064;28;20517;-70
2020/12/29 08:58:24;;;;;;;39.60;16.92;;;;;;;0.94;100.00;98132.63;4989202;28;20038;-71
2020/12/29 09:00:49;;;;;;;42.33;19.25;;;;;;;1.01;100.00;98144.47;4986778;28;20172;-70
2020/12/29 09:03:22;;;;;;;39.40;17.90;;;;;;;1.11;100.00;98145.56;4990968;28;20519;-70
2020/12/29 09:05:52;;;;;;;32.95;16.35;;;;;;;1.17;100.00;98150.44;4990119;28;20066;-71
2020/12/29 09:08:44;;;;;;;36.10;16.33;;;;;;;1.27;100.00;98156.78;5000628;28;20458;-70
2020/12/29 09:11:14;;;;;;;38.00;16.27;;;;;;;1.42;100.00;98158.38;4966978;28;20103;-70
2020/12/29 09:14:02;;;;;;;33.92;15.68;;;;;;;1.38;100.00;98171.91;4972210;28;20049;-71
2020/12/29 09:16:28;;;;;;;39.08;20.02;;;;;;;1.39;100.00;98173.59;4986026;28;20049;-71
2020/12/29 09:18:54;;;;;;;37.55;17.23;;;;;;;1.39;100.00;98174.44;4988980;28;20038;-71
2020/12/29 09:21:23;;;;;;;34.80;14.35;;;;;;;1.58;100.00;98172.25;4970273;28;20038;-73
2020/12/29 09:23:59;;;;;;;42.95;17.50;;;;;;;1.64;100.00;98176.28;4988829;28;20045;-71
2020/12/29 09:26:25;;;;;;;32.67;15.48;;;;;;;1.70;100.00;98188.22;4985703;28;20239;-71
2020/12/29 09:28:50;;;;;;;34.42;17.02;;;;;;;1.63;100.00;98186.00;4970347;28;20044;-71
2020/12/29 09:31:15;;;;;;;36.50;15.40;;;;;;;1.86;100.00;98196.78;4987492;28;20061;-71
2020/12/29 09:33:42;;;;;;;32.22;15.10;;;;;;;1.84;100.00;98199.53;4987723;28;20041;-71
2020/12/29 09:36:22;;;;;;;35.90;15.52;;;;;;;1.98;100.00;98201.22;4990928;28;20046;-71
2020/12/29 09:38:48;;;;;;;34.13;16.75;;;;;;;1.95;100.00;98206.72;4987480;28;20587;-71
2020/12/29 09:41:14;;;;;;;45.72;17.33;;;;;;;2.01;100.00;98206.31;4986672;28;20026;-71
2020/12/29 09:43:39;;;;;;;38.75;17.75;;;;;;;2.16;100.00;98213.16;4970539;28;20490;-71
2020/12/29 09:46:05;;;;;;;43.22;16.85;;;;;;;2.21;100.00;98221.66;4979955;28;20154;-71
2020/12/29 09:48:30;;;;;;;35.72;16.38;;;;;;;2.22;100.00;98219.84;4973155;28;20509;-71
2020/12/29 09:50:56;;;;;;;40.72;16.67;;;;;;;2.32;100.00;98227.03;4972296;28;20042;-71
2020/12/29 09:53:21;;;;;;;41.45;16.90;;;;;;;2.32;100.00;98226.16;4973713;28;20034;-71
2020/12/29 09:55:47;;;;;;;39.97;16.25;;;;;;;2.32;100.00;98237.59;4990871;28;20309;-71
2020/12/29 09:58:12;;;;;;;44.45;17.75;;;;;;;2.42;100.00;98243.94;4991681;28;20027;-71
2020/12/29 10:00:37;;;;;;;41.30;17.05;;;;;;;2.48;100.00;98247.09;4974380;28;20601;-71
2020/12/29 10:03:03;;;;;;;45.38;18.20;;;;;;;2.43;100.00;98261.50;4972362;28;20058;-71
2020/12/29 10:05:28;;;;;;;40.33;17.60;;;;;;;2.58;100.00;98253.44;4991235;28;20121;-71
2020/12/29 10:07:54;;;;;;;44.20;18.25;;;;;;;2.59;100.00;98257.81;4990646;28;20065;-71
2020/12/29 10:10:20;;;;;;;47.92;22.77;;;;;;;2.63;100.00;98253.97;4990307;28;20116;-71
2020/12/29 10:12:46;;;;;;;53.47;19.65;;;;;;;2.58;100.00;98266.69;5004541;28;20492;-71
2020/12/29 10:15:11;;;;;;;73.45;27.85;;;;;;;2.61;100.00;98250.56;4993009;28;20034;-71
2020/12/29 10:17:37;;;;;;;56.67;23.60;;;;;;;2.72;100.00;98267.38;4992384;28;20034;-72
2020/12/29 10:20:04;;;;;;;68.35;27.10;;;;;;;2.79;100.00;98273.09;4994374;28;20576;-71
2020/12/29 10:22:29;;;;;;;50.05;22.25;;;;;;;2.76;100.00;98273.31;4994407;28;20105;-71
2020/12/29 10:24:55;;;;;;;51.67;22.40;;;;;;;2.97;100.00;98282.34;4995372;28;20484;-71
2020/12/29 10:27:20;;;;;;;64.50;24.95;;;;;;;2.95;100.00;98281.66;4988561;28;20044;-70
2020/12/29 10:29:46;;;;;;;60.83;26.42;;;;;;;2.93;100.00;98286.19;4989649;28;20030;-70
2020/12/29 10:32:11;;;;;;;63.20;27.45;;;;;;;2.98;100.00;98289.34;4972181;28;20022;-70
2020/12/29 10:34:37;;;;;;;66.93;25.20;;;;;;;3.02;100.00;98295.31;4975151;28;20709;-70
2020/12/29 10:37:02;;;;;;;52.35;23.55;;;;;;;2.91;100.00;98293.41;4971376;28;20039;-70
2020/12/29 10:39:27;;;;;;;63.30;26.70;;;;;;;3.00;100.00;98298.06;4990542;28;20034;-70
2020/12/29 10:41:53;;;;;;;72.53;30.02;;;;;;;3.02;100.00;98293.50;5005639;28;20038;-70
2020/12/29 10:44:18;;;;;;;60.53;26.58;;;;;;;3.08;100.00;98295.69;4992226;28;20058;-71
2020/12/29 10:46:47;;;;;;;69.32;29.27;;;;;;;3.18;100.00;98296.72;4989586;28;20034;-71
2020/12/29 10:49:14;;;;;;;72.75;27.98;;;;;;;3.10;100.00;98288.47;4958925;28;20034;-71
2020/12/29 10:51:39;;;;;;;70.85;28.50;;;;;;;3.22;100.00;98294.69;4992723;28;20758;-71
2020/12/29 10:54:04;;;;;;;67.88;27.52;;;;;;;3.29;100.00;98295.94;4991044;28;20121;-71
2020/12/29 10:56:31;;;;;;;76.20;31.17;;;;;;;3.29;100.00;98305.69;4990031;28;20046;-71
2020/12/29 10:58:56;;;;;;;63.53;28.05;;;;;;;3.29;100.00;98303.03;4991427;28;20044;-70
2020/12/29 11:01:24;;;;;;;70.95;29.45;;;;;;;3.22;100.00;98316.72;4974675;28;20121;-71
2020/12/29 11:03:50;;;;;;;63.95;27.48;;;;;;;3.34;100.00;98322.09;4990156;28;20022;-71
2020/12/29 11:06:20;;;;;;;71.78;28.00;;;;;;;3.32;100.00;98324.88;4990532;28;20041;-71
2020/12/29 11:08:46;;;;;;;71.70;29.95;;;;;;;3.45;100.00;98335.44;4991579;28;20035;-71
2020/12/29 11:11:13;;;;;;;69.45;28.48;;;;;;;3.50;100.00;98344.75;4990585;28;20034;-71
2020/12/29 11:13:39;;;;;;;70.18;28.67;;;;;;;3.58;100.00;98341.53;4991258;28;20038;-70
2020/12/29 11:16:04;;;;;;;68.38;30.63;;;;;;;3.67;100.00;98346.13;4989300;28;20042;-71
2020/12/29 11:18:30;;;;;;;73.25;31.20;;;;;;;3.77;100.00;98351.59;4990245;28;20038;-71
2020/12/29 11:20:56;;;;;;;72.07;32.72;;;;;;;3.78;100.00;98348.84;4990377;28;20066;-71